sensor_id;sensor_type;location;lat;lon;timestamp;P1;durP1;ratioP1;P2;durP2;ratioP2
35887;SDS011;21990;42.540;23.496;2023-01-10T00:00:51;42.53;;;18.65;;
35887;SDS011;21990;42.540;23.496;2023-01-10T00:03:17;35.53;;;17.05;;
35887;SDS011;21990;42.540;23.496;2023-01-10T00:05:43;38.45;;;17.80;;
35887;SDS011;21990;42.540;23.496;2023-01-10T00:08:09;39.72;;;18.50;;
35887;SDS011;21990;42.540;23.496;2023-01-10T00:10:39;45.95;;;19.17;;
35887;SDS011;21990;42.540;23.496;2023-01-10T00:13:05;48.63;;;21.50;;
35887;SDS011;21990;42.540;23.496;2023-01-10T00:15:49;36.70;;;15.25;;
35887;SDS011;21990;42.540;23.496;2023-01-10T00:18:16;42.47;;;18.88;;
35887;SDS011;21990;42.540;23.496;2023-01-10T00:20:42;42.47;;;18.65;;
35887;SDS011;21990;42.540;23.496;2023-01-10T00:23:11;48.20;;;22.60;;
35887;SDS011;21990;42.540;23.496;2023-01-10T00:25:37;48.88;;;21.23;;
35887;SDS011;21990;42.540;23.496;2023-01-10T00:28:03;42.45;;;19.55;;
35887;SDS011;21990;42.540;23.496;2023-01-10T00:30:37;42.25;;;18.85;;
35887;SDS011;21990;42.540;23.496;2023-01-10T00:33:03;43.65;;;18.98;;
35887;SDS011;21990;42.540;23.496;2023-01-10T00:35:29;47.20;;;21.00;;
35887;SDS011;21990;42.540;23.496;2023-01-10T00:37:55;38.90;;;17.23;;
35887;SDS011;21990;42.540;23.496;2023-01-10T00:40:25;38.90;;;18.13;;
35887;SDS011;21990;42.540;23.496;2023-01-10T00:42:51;47.67;;;20.50;;
35887;SDS011;21990;42.540;23.496;2023-01-10T00:45:35;43.25;;;19.38;;
35887;SDS011;21990;42.540;23.496;2023-01-10T00:48:01;46.45;;;20.30;;
35887;SDS011;21990;42.540;23.496;2023-01-10T00:50:26;46.08;;;20.67;;
35887;SDS011;21990;42.540;23.496;2023-01-10T00:52:52;39.33;;;18.92;;
35887;SDS011;21990;42.540;23.496;2023-01-10T00:55:17;40.63;;;19.55;;
35887;SDS011;21990;42.540;23.496;2023-01-10T00:57:43;37.50;;;18.33;;
35887;SDS011;21990;42.540;23.496;2023-01-10T01:00:09;44.30;;;21.60;;
35887;SDS011;21990;42.540;23.496;2023-01-10T01:02:36;43.95;;;19.65;;
35887;SDS011;21990;42.540;23.496;2023-01-10T01:05:02;44.25;;;20.50;;
35887;SDS011;21990;42.540;23.496;2023-01-10T01:07:28;47.65;;;20.30;;
35887;SDS011;21990;42.540;23.496;2023-01-10T01:09:56;41.22;;;19.55;;
35887;SDS011;21990;42.540;23.496;2023-01-10T01:12:40;48.50;;;21.92;;
35887;SDS011;21990;42.540;23.496;2023-01-10T01:15:06;43.92;;;19.30;;
35887;SDS011;21990;42.540;23.496;2023-01-10T01:17:32;51.35;;;21.17;;
35887;SDS011;21990;42.540;23.496;2023-01-10T01:19:57;43.92;;;20.08;;
35887;SDS011;21990;42.540;23.496;2023-01-10T01:22:23;46.90;;;21.85;;
35887;SDS011;21990;42.540;23.496;2023-01-10T01:24:48;50.95;;;22.92;;
35887;SDS011;21990;42.540;23.496;2023-01-10T01:27:14;52.30;;;23.02;;
35887;SDS011;21990;42.540;23.496;2023-01-10T01:29:39;55.35;;;23.67;;
35887;SDS011;21990;42.540;23.496;2023-01-10T01:32:05;56.35;;;23.98;;
35887;SDS011;21990;42.540;23.496;2023-01-10T01:34:30;87.68;;;36.88;;
35887;SDS011;21990;42.540;23.496;2023-01-10T01:36:55;66.18;;;26.70;;
35887;SDS011;21990;42.540;23.496;2023-01-10T01:39:22;66.63;;;28.20;;
35887;SDS011;21990;42.540;23.496;2023-01-10T01:41:48;47.08;;;22.35;;
35887;SDS011;21990;42.540;23.496;2023-01-10T01:44:23;41.78;;;20.58;;
35887;SDS011;21990;42.540;23.496;2023-01-10T01:47:06;47.78;;;21.58;;
35887;SDS011;21990;42.540;23.496;2023-01-10T01:49:37;47.58;;;21.27;;
35887;SDS011;21990;42.540;23.496;2023-01-10T01:52:07;53.65;;;23.13;;
35887;SDS011;21990;42.540;23.496;2023-01-10T01:57:10;55.08;;;22.27;;
35887;SDS011;21990;42.540;23.496;2023-01-10T01:59:40;54.90;;;23.55;;
35887;SDS011;21990;42.540;23.496;2023-01-10T02:02:18;53.53;;;23.95;;
35887;SDS011;21990;42.540;23.496;2023-01-10T02:04:50;55.83;;;24.45;;
35887;SDS011;21990;42.540;23.496;2023-01-10T02:07:19;56.78;;;25.48;;
35887;SDS011;21990;42.540;23.496;2023-01-10T02:12:19;51.80;;;22.80;;
35887;SDS011;21990;42.540;23.496;2023-01-10T02:14:46;55.85;;;24.10;;
35887;SDS011;21990;42.540;23.496;2023-01-10T02:17:14;52.45;;;24.30;;
35887;SDS011;21990;42.540;23.496;2023-01-10T02:19:56;57.30;;;25.10;;
35887;SDS011;21990;42.540;23.496;2023-01-10T02:33:28;61.67;;;24.42;;
35887;SDS011;21990;42.540;23.496;2023-01-10T02:36:01;52.45;;;23.70;;
35887;SDS011;21990;42.540;23.496;2023-01-10T02:39:00;60.67;;;25.15;;
35887;SDS011;21990;42.540;23.496;2023-01-10T02:41:32;58.80;;;26.85;;
35887;SDS011;21990;42.540;23.496;2023-01-10T02:44:07;65.47;;;27.58;;
35887;SDS011;21990;42.540;23.496;2023-01-10T02:46:38;59.53;;;26.00;;
35887;SDS011;21990;42.540;23.496;2023-01-10T02:49:05;61.90;;;25.60;;
35887;SDS011;21990;42.540;23.496;2023-01-10T02:51:31;60.63;;;26.77;;
35887;SDS011;21990;42.540;23.496;2023-01-10T02:54:01;52.75;;;24.23;;
35887;SDS011;21990;42.540;23.496;2023-01-10T02:56:46;45.50;;;20.38;;
35887;SDS011;21990;42.540;23.496;2023-01-10T02:59:41;45.47;;;20.23;;
35887;SDS011;21990;42.540;23.496;2023-01-10T03:02:37;49.30;;;21.80;;
35887;SDS011;21990;42.540;23.496;2023-01-10T03:05:37;54.10;;;22.63;;
35887;SDS011;21990;42.540;23.496;2023-01-10T03:11:11;46.33;;;20.45;;
35887;SDS011;21990;42.540;23.496;2023-01-10T03:13:42;47.80;;;20.05;;
35887;SDS011;21990;42.540;23.496;2023-01-10T03:16:16;44.35;;;21.33;;
35887;SDS011;21990;42.540;23.496;2023-01-10T03:18:49;49.80;;;22.02;;
35887;SDS011;21990;42.540;23.496;2023-01-10T03:21:18;59.67;;;25.90;;
35887;SDS011;21990;42.540;23.496;2023-01-10T03:23:46;45.83;;;21.38;;
35887;SDS011;21990;42.540;23.496;2023-01-10T03:26:14;39.30;;;19.27;;
35887;SDS011;21990;42.540;23.496;2023-01-10T03:28:47;51.67;;;24.60;;
35887;SDS011;21990;42.540;23.496;2023-01-10T03:31:25;51.92;;;25.17;;
35887;SDS011;21990;42.540;23.496;2023-01-10T03:33:56;50.05;;;23.45;;
35887;SDS011;21990;42.540;23.496;2023-01-10T03:39:29;43.17;;;20.92;;
35887;SDS011;21990;42.540;23.496;2023-01-10T03:42:06;45.53;;;19.95;;
35887;SDS011;21990;42.540;23.496;2023-01-10T03:44:58;47.53;;;22.15;;
35887;SDS011;21990;42.540;23.496;2023-01-10T03:47:38;45.67;;;21.98;;
35887;SDS011;21990;42.540;23.496;2023-01-10T03:50:12;44.13;;;19.90;;
35887;SDS011;21990;42.540;23.496;2023-01-10T03:52:44;44.05;;;19.63;;
35887;SDS011;21990;42.540;23.496;2023-01-10T03:55:11;40.70;;;19.13;;
35887;SDS011;21990;42.540;23.496;2023-01-10T03:57:40;43.03;;;20.40;;
35887;SDS011;21990;42.540;23.496;2023-01-10T04:00:07;40.03;;;19.15;;
35887;SDS011;21990;42.540;23.496;2023-01-10T04:02:34;47.90;;;21.73;;
35887;SDS011;21990;42.540;23.496;2023-01-10T04:04:59;43.40;;;21.38;;
35887;SDS011;21990;42.540;23.496;2023-01-10T04:07:25;45.50;;;21.20;;
35887;SDS011;21990;42.540;23.496;2023-01-10T04:09:51;51.83;;;22.27;;
35887;SDS011;21990;42.540;23.496;2023-01-10T04:12:16;49.15;;;22.02;;
35887;SDS011;21990;42.540;23.496;2023-01-10T04:14:42;54.20;;;23.40;;
35887;SDS011;21990;42.540;23.496;2023-01-10T04:17:10;57.00;;;24.65;;
35887;SDS011;21990;42.540;23.496;2023-01-10T04:19:37;64.20;;;26.17;;
35887;SDS011;21990;42.540;23.496;2023-01-10T04:22:02;60.70;;;23.05;;
35887;SDS011;21990;42.540;23.496;2023-01-10T04:24:29;59.47;;;25.08;;
35887;SDS011;21990;42.540;23.496;2023-01-10T04:26:55;61.17;;;25.77;;
35887;SDS011;21990;42.540;23.496;2023-01-10T04:29:21;55.67;;;25.23;;
35887;SDS011;21990;42.540;23.496;2023-01-10T04:31:46;49.08;;;23.20;;
35887;SDS011;21990;42.540;23.496;2023-01-10T04:34:12;59.97;;;25.65;;
35887;SDS011;21990;42.540;23.496;2023-01-10T04:36:38;58.10;;;25.23;;
35887;SDS011;21990;42.540;23.496;2023-01-10T04:39:03;53.50;;;23.67;;
35887;SDS011;21990;42.540;23.496;2023-01-10T04:41:29;66.97;;;30.42;;
35887;SDS011;21990;42.540;23.496;2023-01-10T04:43:54;61.42;;;26.10;;
35887;SDS011;21990;42.540;23.496;2023-01-10T04:46:20;68.80;;;29.38;;
35887;SDS011;21990;42.540;23.496;2023-01-10T04:48:46;64.20;;;29.02;;
35887;SDS011;21990;42.540;23.496;2023-01-10T04:51:11;64.05;;;27.63;;
35887;SDS011;21990;42.540;23.496;2023-01-10T04:53:37;66.10;;;27.65;;
35887;SDS011;21990;42.540;23.496;2023-01-10T04:56:03;57.50;;;26.40;;
35887;SDS011;21990;42.540;23.496;2023-01-10T04:58:34;56.13;;;27.05;;
35887;SDS011;21990;42.540;23.496;2023-01-10T05:01:10;56.83;;;26.17;;
35887;SDS011;21990;42.540;23.496;2023-01-10T05:03:38;57.08;;;24.98;;
35887;SDS011;21990;42.540;23.496;2023-01-10T05:06:04;58.42;;;26.30;;
35887;SDS011;21990;42.540;23.496;2023-01-10T05:08:30;67.47;;;28.35;;
35887;SDS011;21990;42.540;23.496;2023-01-10T05:10:55;77.18;;;25.98;;
35887;SDS011;21990;42.540;23.496;2023-01-10T05:13:21;57.55;;;23.80;;
35887;SDS011;21990;42.540;23.496;2023-01-10T05:15:46;64.88;;;26.60;;
35887;SDS011;21990;42.540;23.496;2023-01-10T05:18:12;54.90;;;26.23;;
35887;SDS011;21990;42.540;23.496;2023-01-10T05:20:37;67.93;;;25.67;;
35887;SDS011;21990;42.540;23.496;2023-01-10T05:23:03;54.70;;;23.95;;
35887;SDS011;21990;42.540;23.496;2023-01-10T05:25:28;49.50;;;22.88;;
35887;SDS011;21990;42.540;23.496;2023-01-10T05:27:54;46.80;;;21.55;;
35887;SDS011;21990;42.540;23.496;2023-01-10T05:30:20;47.40;;;21.73;;
35887;SDS011;21990;42.540;23.496;2023-01-10T05:32:46;50.92;;;22.85;;
35887;SDS011;21990;42.540;23.496;2023-01-10T05:35:11;45.90;;;21.10;;
35887;SDS011;21990;42.540;23.496;2023-01-10T05:37:37;46.00;;;20.08;;
35887;SDS011;21990;42.540;23.496;2023-01-10T05:40:02;46.50;;;22.50;;
35887;SDS011;21990;42.540;23.496;2023-01-10T05:42:28;48.42;;;21.55;;
35887;SDS011;21990;42.540;23.496;2023-01-10T05:44:54;48.65;;;22.52;;
35887;SDS011;21990;42.540;23.496;2023-01-10T05:47:19;46.85;;;21.80;;
35887;SDS011;21990;42.540;23.496;2023-01-10T05:49:45;52.60;;;23.60;;
35887;SDS011;21990;42.540;23.496;2023-01-10T05:52:10;49.15;;;23.92;;
35887;SDS011;21990;42.540;23.496;2023-01-10T05:54:36;45.22;;;21.52;;
35887;SDS011;21990;42.540;23.496;2023-01-10T05:57:02;45.60;;;21.40;;
35887;SDS011;21990;42.540;23.496;2023-01-10T05:59:27;51.13;;;24.02;;
35887;SDS011;21990;42.540;23.496;2023-01-10T06:01:53;49.28;;;23.30;;
35887;SDS011;21990;42.540;23.496;2023-01-10T06:04:18;53.85;;;24.63;;
35887;SDS011;21990;42.540;23.496;2023-01-10T06:06:44;47.08;;;20.73;;
35887;SDS011;21990;42.540;23.496;2023-01-10T06:09:09;49.53;;;21.55;;
35887;SDS011;21990;42.540;23.496;2023-01-10T06:11:35;56.72;;;29.73;;
35887;SDS011;21990;42.540;23.496;2023-01-10T06:14:03;51.33;;;24.50;;
35887;SDS011;21990;42.540;23.496;2023-01-10T06:16:28;47.60;;;21.65;;
35887;SDS011;21990;42.540;23.496;2023-01-10T06:18:54;49.00;;;20.98;;
35887;SDS011;21990;42.540;23.496;2023-01-10T06:21:20;45.22;;;20.63;;
35887;SDS011;21990;42.540;23.496;2023-01-10T06:23:45;48.40;;;21.23;;
35887;SDS011;21990;42.540;23.496;2023-01-10T06:26:11;46.85;;;20.52;;
35887;SDS011;21990;42.540;23.496;2023-01-10T06:28:37;45.88;;;20.15;;
35887;SDS011;21990;42.540;23.496;2023-01-10T06:31:05;45.05;;;20.02;;
35887;SDS011;21990;42.540;23.496;2023-01-10T06:33:31;43.97;;;19.80;;
35887;SDS011;21990;42.540;23.496;2023-01-10T06:35:57;46.13;;;20.23;;
35887;SDS011;21990;42.540;23.496;2023-01-10T06:38:22;43.75;;;20.35;;
35887;SDS011;21990;42.540;23.496;2023-01-10T06:40:48;41.65;;;19.23;;
35887;SDS011;21990;42.540;23.496;2023-01-10T06:43:14;51.75;;;20.38;;
35887;SDS011;21990;42.540;23.496;2023-01-10T06:45:39;45.08;;;20.42;;
35887;SDS011;21990;42.540;23.496;2023-01-10T06:48:05;45.75;;;19.27;;
35887;SDS011;21990;42.540;23.496;2023-01-10T06:50:30;50.67;;;21.90;;
35887;SDS011;21990;42.540;23.496;2023-01-10T06:52:59;50.28;;;22.05;;
35887;SDS011;21990;42.540;23.496;2023-01-10T06:55:27;50.80;;;21.77;;
35887;SDS011;21990;42.540;23.496;2023-01-10T06:58:00;51.10;;;22.83;;
35887;SDS011;21990;42.540;23.496;2023-01-10T07:00:28;45.15;;;21.15;;
35887;SDS011;21990;42.540;23.496;2023-01-10T07:02:56;54.85;;;24.17;;
35887;SDS011;21990;42.540;23.496;2023-01-10T07:05:22;52.88;;;22.23;;
35887;SDS011;21990;42.540;23.496;2023-01-10T07:07:48;47.10;;;21.38;;
35887;SDS011;21990;42.540;23.496;2023-01-10T07:10:14;54.80;;;23.30;;
35887;SDS011;21990;42.540;23.496;2023-01-10T07:12:40;60.00;;;24.42;;
35887;SDS011;21990;42.540;23.496;2023-01-10T07:15:05;51.90;;;24.05;;
35887;SDS011;21990;42.540;23.496;2023-01-10T07:17:31;54.67;;;25.52;;
35887;SDS011;21990;42.540;23.496;2023-01-10T07:19:57;53.33;;;24.05;;
35887;SDS011;21990;42.540;23.496;2023-01-10T07:22:22;55.17;;;23.40;;
35887;SDS011;21990;42.540;23.496;2023-01-10T07:24:48;54.53;;;23.40;;
35887;SDS011;21990;42.540;23.496;2023-01-10T07:27:13;66.75;;;27.48;;
35887;SDS011;21990;42.540;23.496;2023-01-10T07:29:39;52.88;;;27.05;;
35887;SDS011;21990;42.540;23.496;2023-01-10T07:32:04;63.03;;;30.00;;
35887;SDS011;21990;42.540;23.496;2023-01-10T07:34:30;58.45;;;26.30;;
35887;SDS011;21990;42.540;23.496;2023-01-10T17:43:43;31.88;;;15.93;;
35887;SDS011;21990;42.540;23.496;2023-01-10T17:46:09;10.50;;;5.65;;
35887;SDS011;21990;42.540;23.496;2023-01-10T17:48:39;8.35;;;5.13;;
35887;SDS011;21990;42.540;23.496;2023-01-10T17:51:05;75.43;;;27.27;;
35887;SDS011;21990;42.540;23.496;2023-01-10T17:53:31;3.92;;;2.75;;
35887;SDS011;21990;42.540;23.496;2023-01-10T17:55:57;1.60;;;1.30;;
35887;SDS011;21990;42.540;23.496;2023-01-10T17:58:25;3.85;;;1.40;;
35887;SDS011;21990;42.540;23.496;2023-01-10T18:00:51;4.05;;;2.20;;
35887;SDS011;21990;42.540;23.496;2023-01-10T18:03:16;3.30;;;2.40;;
35887;SDS011;21990;42.540;23.496;2023-01-10T18:05:52;1.98;;;1.10;;
35887;SDS011;21990;42.540;23.496;2023-01-10T18:08:20;1.45;;;1.20;;
35887;SDS011;21990;42.540;23.496;2023-01-10T18:10:46;3.90;;;2.65;;
35887;SDS011;21990;42.540;23.496;2023-01-10T18:13:12;1.40;;;1.10;;
35887;SDS011;21990;42.540;23.496;2023-01-10T18:15:43;1.63;;;1.00;;
35887;SDS011;21990;42.540;23.496;2023-01-10T18:18:11;8.00;;;2.70;;
35887;SDS011;21990;42.540;23.496;2023-01-10T18:20:40;1.88;;;1.50;;
35887;SDS011;21990;42.540;23.496;2023-01-10T18:23:12;8.95;;;6.10;;
35887;SDS011;21990;42.540;23.496;2023-01-10T18:25:59;3.60;;;2.20;;
35887;SDS011;21990;42.540;23.496;2023-01-10T18:28:27;5.00;;;2.83;;
35887;SDS011;21990;42.540;23.496;2023-01-10T18:30:55;3.75;;;2.95;;
35887;SDS011;21990;42.540;23.496;2023-01-10T18:33:20;14.77;;;8.48;;
35887;SDS011;21990;42.540;23.496;2023-01-10T18:35:48;13.32;;;8.15;;
35887;SDS011;21990;42.540;23.496;2023-01-10T18:38:14;6.93;;;5.28;;
35887;SDS011;21990;42.540;23.496;2023-01-10T18:40:40;7.82;;;3.53;;
35887;SDS011;21990;42.540;23.496;2023-01-10T18:43:11;3.58;;;2.33;;
35887;SDS011;21990;42.540;23.496;2023-01-10T18:45:42;1.63;;;1.48;;
35887;SDS011;21990;42.540;23.496;2023-01-10T18:48:12;4.82;;;4.20;;
35887;SDS011;21990;42.540;23.496;2023-01-10T18:50:40;16.13;;;10.57;;
35887;SDS011;21990;42.540;23.496;2023-01-10T18:53:08;8.85;;;5.90;;
35887;SDS011;21990;42.540;23.496;2023-01-10T18:55:33;2.33;;;1.75;;
35887;SDS011;21990;42.540;23.496;2023-01-10T18:57:59;25.73;;;10.90;;
35887;SDS011;21990;42.540;23.496;2023-01-10T19:00:25;12.13;;;6.68;;
35887;SDS011;21990;42.540;23.496;2023-01-10T19:02:51;12.35;;;5.70;;
35887;SDS011;21990;42.540;23.496;2023-01-10T19:05:18;18.55;;;8.35;;
35887;SDS011;21990;42.540;23.496;2023-01-10T19:07:44;9.27;;;4.78;;
35887;SDS011;21990;42.540;23.496;2023-01-10T19:10:10;6.20;;;4.55;;
35887;SDS011;21990;42.540;23.496;2023-01-10T19:12:36;140.20;;;56.85;;
35887;SDS011;21990;42.540;23.496;2023-01-10T19:15:06;36.45;;;18.60;;
35887;SDS011;21990;42.540;23.496;2023-01-10T19:17:32;9.88;;;6.97;;
35887;SDS011;21990;42.540;23.496;2023-01-10T19:19:58;4.40;;;2.90;;
35887;SDS011;21990;42.540;23.496;2023-01-10T19:22:23;3.63;;;2.28;;
35887;SDS011;21990;42.540;23.496;2023-01-10T19:24:49;3.63;;;2.65;;
35887;SDS011;21990;42.540;23.496;2023-01-10T19:27:14;5.38;;;3.15;;
35887;SDS011;21990;42.540;23.496;2023-01-10T19:29:42;20.60;;;10.88;;
35887;SDS011;21990;42.540;23.496;2023-01-10T19:32:10;6.72;;;3.78;;
35887;SDS011;21990;42.540;23.496;2023-01-10T19:34:35;3.80;;;2.38;;
35887;SDS011;21990;42.540;23.496;2023-01-10T19:37:01;3.13;;;1.73;;
35887;SDS011;21990;42.540;23.496;2023-01-10T19:39:26;8.65;;;4.38;;
35887;SDS011;21990;42.540;23.496;2023-01-10T19:41:52;6.03;;;3.30;;
35887;SDS011;21990;42.540;23.496;2023-01-10T19:44:17;8.05;;;3.92;;
35887;SDS011;21990;42.540;23.496;2023-01-10T19:46:43;9.98;;;5.38;;
35887;SDS011;21990;42.540;23.496;2023-01-10T19:49:12;10.82;;;6.07;;
35887;SDS011;21990;42.540;23.496;2023-01-10T19:51:43;4.22;;;2.63;;
35887;SDS011;21990;42.540;23.496;2023-01-10T19:54:11;5.25;;;2.85;;
35887;SDS011;21990;42.540;23.496;2023-01-10T19:56:37;6.80;;;4.07;;
35887;SDS011;21990;42.540;23.496;2023-01-10T19:59:03;11.52;;;5.30;;
35887;SDS011;21990;42.540;23.496;2023-01-10T20:01:29;8.43;;;3.42;;
35887;SDS011;21990;42.540;23.496;2023-01-10T20:03:58;1.95;;;1.20;;
35887;SDS011;21990;42.540;23.496;2023-01-10T20:06:26;1.65;;;1.30;;
35887;SDS011;21990;42.540;23.496;2023-01-10T20:08:56;2.63;;;1.70;;
35887;SDS011;21990;42.540;23.496;2023-01-10T20:11:23;5.40;;;3.33;;
35887;SDS011;21990;42.540;23.496;2023-01-10T20:13:50;3.70;;;2.20;;
35887;SDS011;21990;42.540;23.496;2023-01-10T20:16:17;5.50;;;3.13;;
35887;SDS011;21990;42.540;23.496;2023-01-10T20:18:44;3.78;;;1.98;;
35887;SDS011;21990;42.540;23.496;2023-01-10T20:21:11;16.58;;;7.80;;
35887;SDS011;21990;42.540;23.496;2023-01-10T20:23:38;18.33;;;10.82;;
35887;SDS011;21990;42.540;23.496;2023-01-10T20:26:15;24.65;;;13.07;;
35887;SDS011;21990;42.540;23.496;2023-01-10T20:28:43;12.80;;;6.32;;
35887;SDS011;21990;42.540;23.496;2023-01-10T20:31:12;5.47;;;2.67;;
35887;SDS011;21990;42.540;23.496;2023-01-10T20:33:39;9.35;;;5.70;;
35887;SDS011;21990;42.540;23.496;2023-01-10T20:36:06;12.60;;;5.25;;
35887;SDS011;21990;42.540;23.496;2023-01-10T20:38:35;4.95;;;3.25;;
35887;SDS011;21990;42.540;23.496;2023-01-10T20:41:02;8.40;;;4.78;;
35887;SDS011;21990;42.540;23.496;2023-01-10T20:43:30;7.13;;;4.00;;
35887;SDS011;21990;42.540;23.496;2023-01-10T20:45:55;6.88;;;3.33;;
35887;SDS011;21990;42.540;23.496;2023-01-10T20:48:21;6.00;;;2.85;;
35887;SDS011;21990;42.540;23.496;2023-01-10T20:50:52;10.73;;;4.70;;
35887;SDS011;21990;42.540;23.496;2023-01-10T20:53:18;14.10;;;6.00;;
35887;SDS011;21990;42.540;23.496;2023-01-10T20:55:43;10.63;;;4.50;;
35887;SDS011;21990;42.540;23.496;2023-01-10T20:58:09;11.82;;;4.03;;
35887;SDS011;21990;42.540;23.496;2023-01-10T21:00:34;4.13;;;2.15;;
35887;SDS011;21990;42.540;23.496;2023-01-10T21:03:00;5.85;;;3.50;;
35887;SDS011;21990;42.540;23.496;2023-01-10T21:05:26;8.10;;;3.60;;
35887;SDS011;21990;42.540;23.496;2023-01-10T21:07:51;4.28;;;2.40;;
35887;SDS011;21990;42.540;23.496;2023-01-10T21:10:17;3.05;;;1.40;;
35887;SDS011;21990;42.540;23.496;2023-01-10T21:12:43;9.38;;;4.20;;
35887;SDS011;21990;42.540;23.496;2023-01-10T21:15:09;5.05;;;2.33;;
35887;SDS011;21990;42.540;23.496;2023-01-10T21:17:34;3.65;;;1.98;;
35887;SDS011;21990;42.540;23.496;2023-01-10T21:20:04;5.35;;;1.60;;
35887;SDS011;21990;42.540;23.496;2023-01-10T21:22:30;2.88;;;1.60;;
35887;SDS011;21990;42.540;23.496;2023-01-10T21:24:56;1.80;;;1.10;;
35887;SDS011;21990;42.540;23.496;2023-01-10T21:27:21;8.90;;;4.50;;
35887;SDS011;21990;42.540;23.496;2023-01-10T21:29:47;5.38;;;2.92;;
35887;SDS011;21990;42.540;23.496;2023-01-10T21:32:12;3.67;;;2.00;;
35887;SDS011;21990;42.540;23.496;2023-01-10T21:34:38;2.97;;;1.52;;
35887;SDS011;21990;42.540;23.496;2023-01-10T21:37:04;2.40;;;1.27;;
35887;SDS011;21990;42.540;23.496;2023-01-10T21:39:29;3.55;;;1.55;;
35887;SDS011;21990;42.540;23.496;2023-01-10T21:41:55;1.55;;;1.20;;
35887;SDS011;21990;42.540;23.496;2023-01-10T21:44:42;1.33;;;0.95;;
35887;SDS011;21990;42.540;23.496;2023-01-10T21:47:07;3.38;;;2.03;;
35887;SDS011;21990;42.540;23.496;2023-01-10T21:49:32;1.05;;;0.80;;
35887;SDS011;21990;42.540;23.496;2023-01-10T21:51:58;1.17;;;0.60;;
35887;SDS011;21990;42.540;23.496;2023-01-10T21:54:23;2.33;;;1.52;;
35887;SDS011;21990;42.540;23.496;2023-01-10T21:56:49;1.48;;;0.63;;
35887;SDS011;21990;42.540;23.496;2023-01-10T21:59:14;3.90;;;2.28;;
35887;SDS011;21990;42.540;23.496;2023-01-10T22:01:41;0.73;;;0.70;;
35887;SDS011;21990;42.540;23.496;2023-01-10T22:04:06;1.30;;;0.80;;
35887;SDS011;21990;42.540;23.496;2023-01-10T22:06:32;0.88;;;0.70;;
35887;SDS011;21990;42.540;23.496;2023-01-10T22:08:57;2.55;;;1.38;;
35887;SDS011;21990;42.540;23.496;2023-01-10T22:11:23;5.03;;;2.03;;
35887;SDS011;21990;42.540;23.496;2023-01-10T22:13:49;2.33;;;1.20;;
35887;SDS011;21990;42.540;23.496;2023-01-10T22:16:16;1.80;;;1.15;;
35887;SDS011;21990;42.540;23.496;2023-01-10T22:18:42;1.75;;;1.15;;
35887;SDS011;21990;42.540;23.496;2023-01-10T22:21:07;1.25;;;0.70;;
35887;SDS011;21990;42.540;23.496;2023-01-10T22:23:33;5.07;;;1.90;;
35887;SDS011;21990;42.540;23.496;2023-01-10T22:28:28;3.58;;;1.25;;
35887;SDS011;21990;42.540;23.496;2023-01-10T22:30:57;2.85;;;1.40;;
35887;SDS011;21990;42.540;23.496;2023-01-10T22:33:23;3.30;;;1.30;;
35887;SDS011;21990;42.540;23.496;2023-01-10T22:35:51;5.03;;;2.42;;
35887;SDS011;21990;42.540;23.496;2023-01-10T22:38:17;2.92;;;1.40;;
35887;SDS011;21990;42.540;23.496;2023-01-10T22:40:42;2.05;;;1.00;;
35887;SDS011;21990;42.540;23.496;2023-01-10T22:43:08;0.80;;;0.70;;
35887;SDS011;21990;42.540;23.496;2023-01-10T22:45:34;9.05;;;3.95;;
35887;SDS011;21990;42.540;23.496;2023-01-10T22:48:00;8.82;;;3.30;;
35887;SDS011;21990;42.540;23.496;2023-01-10T22:50:26;36.33;;;12.90;;
35887;SDS011;21990;42.540;23.496;2023-01-10T22:52:51;9.15;;;3.60;;
35887;SDS011;21990;42.540;23.496;2023-01-10T22:55:17;11.65;;;4.10;;
35887;SDS011;21990;42.540;23.496;2023-01-10T22:57:43;10.07;;;3.33;;
35887;SDS011;21990;42.540;23.496;2023-01-10T23:00:08;4.88;;;2.05;;
35887;SDS011;21990;42.540;23.496;2023-01-10T23:02:34;1.98;;;1.00;;
35887;SDS011;21990;42.540;23.496;2023-01-10T23:05:00;1.85;;;0.60;;
35887;SDS011;21990;42.540;23.496;2023-01-10T23:07:25;21.88;;;7.43;;
35887;SDS011;21990;42.540;23.496;2023-01-10T23:09:51;11.30;;;3.22;;
35887;SDS011;21990;42.540;23.496;2023-01-10T23:12:17;5.93;;;2.10;;
35887;SDS011;21990;42.540;23.496;2023-01-10T23:14:42;0.80;;;0.70;;
35887;SDS011;21990;42.540;23.496;2023-01-10T23:17:08;0.82;;;0.70;;
35887;SDS011;21990;42.540;23.496;2023-01-10T23:19:33;0.60;;;0.60;;
35887;SDS011;21990;42.540;23.496;2023-01-10T23:21:59;0.77;;;0.60;;
35887;SDS011;21990;42.540;23.496;2023-01-10T23:24:24;1.40;;;0.70;;
35887;SDS011;21990;42.540;23.496;2023-01-10T23:26:50;1.65;;;0.68;;
35887;SDS011;21990;42.540;23.496;2023-01-10T23:29:16;4.20;;;2.60;;
35887;SDS011;21990;42.540;23.496;2023-01-10T23:31:41;8.43;;;5.35;;
35887;SDS011;21990;42.540;23.496;2023-01-10T23:34:07;15.15;;;8.20;;
35887;SDS011;21990;42.540;23.496;2023-01-10T23:36:32;25.63;;;12.48;;
35887;SDS011;21990;42.540;23.496;2023-01-10T23:38:58;6.90;;;3.83;;
35887;SDS011;21990;42.540;23.496;2023-01-10T23:41:23;5.53;;;3.10;;
35887;SDS011;21990;42.540;23.496;2023-01-10T23:43:49;5.53;;;3.13;;
35887;SDS011;21990;42.540;23.496;2023-01-10T23:46:16;2.47;;;1.80;;
35887;SDS011;21990;42.540;23.496;2023-01-10T23:48:42;1.95;;;1.20;;
35887;SDS011;21990;42.540;23.496;2023-01-10T23:51:10;3.55;;;2.28;;
35887;SDS011;21990;42.540;23.496;2023-01-10T23:53:36;6.18;;;3.35;;
35887;SDS011;21990;42.540;23.496;2023-01-10T23:56:06;6.75;;;3.13;;
35887;SDS011;21990;42.540;23.496;2023-01-10T23:58:32;4.00;;;2.17;;
